createdAt,value
2023-08-16T00:01:00.462Z,6.50
2023-08-16T00:03:37.757Z,6.40
2023-08-16T00:06:13.092Z,6.90
2023-08-16T00:08:42.050Z,7.60
2023-08-16T00:11:10.695Z,6.90
2023-08-16T00:13:39.161Z,7.00
2023-08-16T00:16:07.753Z,7.30
2023-08-16T00:18:36.220Z,7.50
2023-08-16T00:21:04.646Z,7.50
2023-08-16T00:23:33.260Z,7.70
2023-08-16T00:26:01.587Z,7.20
2023-08-16T00:28:29.959Z,7.50
2023-08-16T00:30:58.633Z,6.70
2023-08-16T00:33:27.044Z,8.00
2023-08-16T00:35:55.384Z,7.20
2023-08-16T00:38:24.015Z,7.90
2023-08-16T00:40:52.693Z,6.80
2023-08-16T00:43:21.120Z,7.50
2023-08-16T00:45:50.421Z,7.20
2023-08-16T00:48:19.248Z,7.60
2023-08-16T00:50:48.126Z,7.00
2023-08-16T00:53:19.189Z,7.90
2023-08-16T00:55:47.827Z,7.90
2023-08-16T00:58:16.423Z,7.70
2023-08-16T01:00:44.882Z,7.20
2023-08-16T01:03:13.391Z,7.80
2023-08-16T01:05:42.087Z,7.80
2023-08-16T01:08:10.650Z,7.80
2023-08-16T01:10:43.527Z,7.70
2023-08-16T01:13:14.814Z,8.50
2023-08-16T01:15:45.436Z,8.20
2023-08-16T01:18:15.361Z,7.90
2023-08-16T01:20:44.790Z,7.60
2023-08-16T01:23:19.623Z,7.80
2023-08-16T01:25:51.011Z,8.00
2023-08-16T01:28:20.169Z,7.70
2023-08-16T01:30:48.940Z,8.10
2023-08-16T01:33:17.302Z,8.70
2023-08-16T01:35:45.956Z,8.10
2023-08-16T01:38:14.716Z,8.40
2023-08-16T01:40:50.252Z,9.30
2023-08-16T01:43:18.807Z,8.10
2023-08-16T01:45:48.989Z,8.50
2023-08-16T01:48:17.805Z,8.70
2023-08-16T01:50:46.515Z,8.50
2023-08-16T01:53:15.106Z,8.20
2023-08-16T01:55:43.421Z,9.10
2023-08-16T01:58:11.883Z,8.60
2023-08-16T02:00:40.180Z,8.40
2023-08-16T02:03:08.540Z,9.50
2023-08-16T02:05:37.267Z,9.30
2023-08-16T02:08:06.199Z,8.00
2023-08-16T02:10:34.630Z,9.10
2023-08-16T02:13:03.305Z,9.00
2023-08-16T02:15:31.816Z,9.60
2023-08-16T02:18:00.337Z,9.30
2023-08-16T02:20:28.787Z,9.10
2023-08-16T02:22:57.272Z,9.60
2023-08-16T02:25:25.635Z,9.40
2023-08-16T02:27:54.171Z,9.40
2023-08-16T02:30:22.764Z,9.40
2023-08-16T02:32:51.073Z,9.30
2023-08-16T02:35:19.728Z,9.40
2023-08-16T02:37:48.089Z,9.90
2023-08-16T02:40:17.189Z,8.70
2023-08-16T02:42:47.248Z,8.90
2023-08-16T02:45:15.667Z,9.00
2023-08-16T02:47:44.114Z,8.80
2023-08-16T02:50:12.846Z,9.40
2023-08-16T02:52:41.142Z,8.30
2023-08-16T02:55:10.187Z,9.50
2023-08-16T02:57:38.700Z,9.40
2023-08-16T03:00:10.977Z,8.70
2023-08-16T03:02:39.805Z,8.80
2023-08-16T03:05:10.086Z,9.20
2023-08-16T03:07:39.673Z,8.50
2023-08-16T03:10:10.192Z,8.50
2023-08-16T03:12:38.608Z,8.50
2023-08-16T03:15:09.241Z,8.10
2023-08-16T03:17:37.652Z,8.50
2023-08-16T03:20:10.221Z,8.80
2023-08-16T03:22:38.650Z,8.40
2023-08-16T03:25:08.989Z,8.90
2023-08-16T03:27:37.544Z,8.50
2023-08-16T03:30:07.936Z,9.30
2023-08-16T03:32:36.299Z,9.10
2023-08-16T03:35:05.898Z,9.50
2023-08-16T03:37:34.298Z,9.70
2023-08-16T03:40:03.124Z,10.00
2023-08-16T03:42:31.507Z,9.90
2023-08-16T03:44:59.853Z,10.30
2023-08-16T03:47:30.292Z,9.70
2023-08-16T03:50:00.173Z,10.10
2023-08-16T03:52:28.481Z,10.20
2023-08-16T03:54:56.904Z,9.90
2023-08-16T03:57:25.750Z,9.60
2023-08-16T03:59:54.445Z,9.90
2023-08-16T04:02:22.932Z,9.90
2023-08-16T04:04:53.491Z,10.00
2023-08-16T04:07:22.529Z,9.40
2023-08-16T04:09:51.590Z,9.70
2023-08-16T04:12:20.304Z,10.50
2023-08-16T04:14:48.669Z,10.50
2023-08-16T04:17:17.292Z,10.10
2023-08-16T04:19:45.654Z,10.00
2023-08-16T04:22:13.969Z,10.10
2023-08-16T04:24:42.621Z,10.90
2023-08-16T04:27:11.029Z,10.20
2023-08-16T04:29:39.550Z,9.70
2023-08-16T04:32:08.378Z,10.50
2023-08-16T04:34:36.810Z,10.40
2023-08-16T04:37:05.363Z,11.10
2023-08-16T04:39:33.848Z,11.00
2023-08-16T04:42:02.189Z,10.40
2023-08-16T04:44:30.538Z,10.60
2023-08-16T04:46:58.861Z,11.30
2023-08-16T04:49:28.804Z,11.30
2023-08-16T04:51:57.624Z,11.40
2023-08-16T04:54:26.307Z,11.40
2023-08-16T04:56:54.764Z,11.80
2023-08-16T04:59:23.143Z,11.50
2023-08-16T05:01:51.544Z,12.10
2023-08-16T05:04:19.839Z,13.10
2023-08-16T05:06:48.159Z,13.50
2023-08-16T05:09:16.836Z,12.70
2023-08-16T05:11:45.217Z,13.10
2023-08-16T05:14:13.544Z,12.10
2023-08-16T05:16:42.031Z,13.20
2023-08-16T05:19:10.508Z,11.50
2023-08-16T05:21:38.942Z,11.60
2023-08-16T05:24:09.008Z,11.20
2023-08-16T05:26:37.472Z,11.50
2023-08-16T05:29:05.962Z,11.30
2023-08-16T05:31:34.274Z,10.70
2023-08-16T05:34:02.664Z,11.10
2023-08-16T05:36:31.018Z,10.60
2023-08-16T05:38:59.597Z,10.40
2023-08-16T05:41:29.523Z,11.30
2023-08-16T05:43:57.944Z,11.60
2023-08-16T05:46:26.273Z,12.60
2023-08-16T05:48:54.582Z,11.30
2023-08-16T05:51:22.936Z,12.40
2023-08-16T05:53:51.240Z,10.90
2023-08-16T05:56:19.704Z,11.50
2023-08-16T05:58:48.018Z,10.70
2023-08-16T06:01:16.561Z,9.80
2023-08-16T06:03:45.070Z,9.90
2023-08-16T06:06:13.530Z,9.30
2023-08-16T06:08:42.133Z,9.00
2023-08-16T06:11:11.047Z,8.30
2023-08-16T06:13:39.376Z,8.10
2023-08-16T06:16:08.052Z,8.50
2023-08-16T06:18:36.348Z,8.00
2023-08-16T06:21:04.711Z,7.90
2023-08-16T06:23:33.162Z,8.30
2023-08-16T06:26:01.458Z,7.90
2023-08-16T06:28:30.748Z,8.20
2023-08-16T06:30:59.133Z,8.50
2023-08-16T06:33:28.436Z,8.70
2023-08-16T06:35:56.802Z,9.00
2023-08-16T06:38:25.132Z,8.80
2023-08-16T06:40:53.769Z,8.80
2023-08-16T06:43:22.215Z,8.90
2023-08-16T06:45:51.043Z,9.30
2023-08-16T06:48:19.320Z,8.40
2023-08-16T06:50:47.759Z,7.80
2023-08-16T06:53:16.448Z,9.60
2023-08-16T06:55:44.817Z,10.20
2023-08-16T06:58:13.169Z,8.50
2023-08-16T07:00:45.035Z,8.50
2023-08-16T07:03:13.518Z,9.00
2023-08-16T07:05:42.185Z,8.60
2023-08-16T07:08:10.635Z,7.60
2023-08-16T07:10:39.025Z,9.50
2023-08-16T07:13:07.664Z,8.90
2023-08-16T07:15:36.074Z,9.20
2023-08-16T07:18:06.252Z,8.20
2023-08-16T07:20:34.974Z,8.20
2023-08-16T07:23:05.981Z,8.20
2023-08-16T07:25:35.479Z,8.00
2023-08-16T07:28:05.306Z,8.60
2023-08-16T07:30:36.086Z,9.30
2023-08-16T07:33:05.569Z,8.70
2023-08-16T07:35:34.031Z,8.00
2023-08-16T07:38:04.187Z,8.70
2023-08-16T07:40:32.694Z,8.70
2023-08-16T07:43:01.067Z,8.30
2023-08-16T07:45:29.495Z,7.80
2023-08-16T07:47:58.153Z,7.80
2023-08-16T07:50:26.630Z,8.30
2023-08-16T07:52:54.997Z,9.10
2023-08-16T07:55:29.695Z,9.80
2023-08-16T07:57:58.112Z,8.20
2023-08-16T08:00:26.598Z,8.00
2023-08-16T08:02:59.823Z,8.20
2023-08-16T08:05:31.136Z,7.70
2023-08-16T08:08:01.252Z,7.80
2023-08-16T08:10:31.040Z,7.90
2023-08-16T08:13:00.059Z,9.00
2023-08-16T08:15:28.869Z,7.30
2023-08-16T08:17:57.486Z,7.90
2023-08-16T08:20:26.034Z,7.90
2023-08-16T08:22:54.507Z,7.70
2023-08-16T08:25:22.907Z,8.10
2023-08-16T08:27:51.258Z,7.40
2023-08-16T08:30:20.075Z,7.50
2023-08-16T08:32:48.982Z,7.50
2023-08-16T08:35:17.530Z,8.20
2023-08-16T08:37:45.871Z,7.30
2023-08-16T08:40:15.256Z,7.10
2023-08-16T08:42:47.244Z,6.80
2023-08-16T08:45:15.966Z,6.50
2023-08-16T08:47:45.358Z,7.00
2023-08-16T08:50:13.892Z,7.10
2023-08-16T08:52:42.774Z,6.20
2023-08-16T08:55:11.453Z,6.80
2023-08-16T08:57:39.883Z,6.80
2023-08-16T09:00:15.078Z,6.70
2023-08-16T09:02:44.105Z,6.10
2023-08-16T09:05:13.999Z,7.00
2023-08-16T09:07:43.379Z,6.20
2023-08-16T09:10:13.052Z,6.90
2023-08-16T09:12:41.510Z,6.50
2023-08-16T09:15:11.010Z,7.10
2023-08-16T09:17:39.406Z,6.70
2023-08-16T09:20:09.594Z,6.60
2023-08-16T09:22:39.091Z,7.00
2023-08-16T09:25:11.557Z,6.40
2023-08-16T09:27:42.335Z,6.20
2023-08-16T09:30:15.239Z,7.10
2023-08-16T09:32:46.366Z,5.60
2023-08-16T09:35:14.885Z,6.00
2023-08-16T09:37:44.655Z,6.30
2023-08-16T09:40:13.423Z,6.40
2023-08-16T09:42:41.753Z,6.80
2023-08-16T09:45:10.798Z,6.30
2023-08-16T09:47:59.739Z,6.20
2023-08-16T09:50:29.335Z,8.00
2023-08-16T09:52:58.939Z,6.40
2023-08-16T09:55:30.090Z,6.30
2023-08-16T09:57:59.732Z,6.30
2023-08-16T10:00:28.908Z,6.30
2023-08-16T10:02:58.931Z,6.00
2023-08-16T10:05:46.185Z,5.60
2023-08-16T10:08:15.309Z,5.40
2023-08-16T10:10:44.133Z,5.40
2023-08-16T10:13:12.939Z,5.40
2023-08-16T10:15:44.540Z,6.10
2023-08-16T10:18:14.062Z,5.60
2023-08-16T10:20:43.447Z,5.70
2023-08-16T10:23:12.919Z,5.50
2023-08-16T10:25:45.999Z,5.30
2023-08-16T10:28:16.122Z,6.00
2023-08-16T10:31:13.279Z,5.80
2023-08-16T10:33:38.037Z,5.80
2023-08-16T10:36:07.641Z,5.20
2023-08-16T10:38:38.201Z,4.70
2023-08-16T10:41:14.576Z,5.30
2023-08-16T10:43:49.861Z,5.10
2023-08-16T10:46:30.451Z,5.30
2023-08-16T10:49:01.673Z,4.60
2023-08-16T10:51:30.921Z,4.60
2023-08-16T10:53:59.644Z,4.90
2023-08-16T10:56:38.739Z,5.20
2023-08-16T10:59:08.446Z,4.80
2023-08-16T11:01:44.273Z,5.10
2023-08-16T11:04:13.362Z,5.10
2023-08-16T11:06:48.182Z,5.30
2023-08-16T11:09:20.516Z,5.50
2023-08-16T11:11:49.583Z,5.40
2023-08-16T11:14:19.354Z,5.50
2023-08-16T11:16:47.926Z,5.70
2023-08-16T11:19:18.435Z,5.70
2023-08-16T11:21:48.124Z,5.80
2023-08-16T11:24:16.422Z,5.80
2023-08-16T11:26:45.074Z,5.70
2023-08-16T11:29:14.045Z,5.50
2023-08-16T11:31:42.500Z,5.30
2023-08-16T11:34:11.469Z,5.70
2023-08-16T11:36:40.110Z,5.70
2023-08-16T11:39:09.331Z,4.90
2023-08-16T11:41:37.984Z,5.10
2023-08-16T11:44:07.153Z,5.50
2023-08-16T11:46:47.890Z,5.40
2023-08-16T11:49:22.141Z,5.70
2023-08-16T11:51:51.502Z,6.20
2023-08-16T11:54:23.613Z,5.00
2023-08-16T11:56:52.222Z,5.50
2023-08-16T11:59:27.744Z,6.30
2023-08-16T12:01:56.210Z,5.60
2023-08-16T12:04:25.530Z,5.80
2023-08-16T12:06:54.340Z,5.30
2023-08-16T12:09:22.840Z,5.50
2023-08-16T12:11:52.831Z,5.50
2023-08-16T12:14:24.412Z,5.60
2023-08-16T12:16:52.775Z,5.80
2023-08-16T12:19:21.358Z,5.40
2023-08-16T12:21:50.881Z,6.00
2023-08-16T12:24:19.349Z,5.90
2023-08-16T12:26:48.022Z,6.10
2023-08-16T12:29:17.713Z,5.70
2023-08-16T12:31:46.060Z,5.80
2023-08-16T12:34:14.466Z,4.90
2023-08-16T12:36:42.731Z,5.20
2023-08-16T12:39:11.181Z,5.60
2023-08-16T12:41:39.620Z,5.30
2023-08-16T12:44:08.879Z,5.80
2023-08-16T12:46:37.335Z,5.50
2023-08-16T12:49:05.925Z,5.10
2023-08-16T12:51:34.284Z,5.10
2023-08-16T12:54:02.608Z,5.30
2023-08-16T12:56:31.103Z,4.30
2023-08-16T12:58:59.471Z,4.80
2023-08-16T13:04:00.513Z,4.70
2023-08-16T13:06:31.851Z,5.10
2023-08-16T13:09:04.223Z,4.50
2023-08-16T13:11:35.188Z,4.70
2023-08-16T13:14:08.688Z,5.10
2023-08-16T13:29:30.597Z,4.50
2023-08-16T13:32:06.838Z,4.60
2023-08-16T13:37:24.907Z,4.30
2023-08-16T13:45:17.004Z,4.20
2023-08-16T13:47:45.511Z,4.80
2023-08-16T13:50:13.902Z,4.40
2023-08-16T13:52:42.280Z,4.70
2023-08-16T13:55:12.262Z,4.50
2023-08-16T13:57:40.782Z,4.40
2023-08-16T14:00:10.864Z,4.50
2023-08-16T14:02:40.464Z,4.50
2023-08-16T14:05:09.794Z,4.60
2023-08-16T14:07:38.330Z,4.30
2023-08-16T14:10:08.451Z,4.50
2023-08-16T14:12:37.204Z,4.70
2023-08-16T14:15:07.254Z,4.30
2023-08-16T14:17:35.805Z,4.00
2023-08-16T14:20:08.064Z,4.70
2023-08-16T14:22:36.505Z,4.80
2023-08-16T14:25:05.906Z,4.80
2023-08-16T14:27:34.802Z,4.40
2023-08-16T14:30:03.931Z,4.10
2023-08-16T14:32:33.388Z,3.80
2023-08-16T14:35:01.730Z,3.90
2023-08-16T14:37:30.143Z,3.70
2023-08-16T14:39:58.733Z,4.20
2023-08-16T14:42:27.463Z,3.60
2023-08-16T14:44:56.075Z,3.90
2023-08-16T14:47:24.464Z,3.60
2023-08-16T14:49:53.096Z,4.10
2023-08-16T14:52:21.476Z,4.00
2023-08-16T14:54:50.376Z,3.90
2023-08-16T14:57:18.917Z,4.10
2023-08-16T14:59:47.324Z,3.40
2023-08-16T15:02:15.742Z,3.70
2023-08-16T15:04:44.159Z,3.10
2023-08-16T15:07:12.609Z,3.50
2023-08-16T15:09:41.013Z,3.30
2023-08-16T15:12:10.006Z,4.00
2023-08-16T15:14:38.439Z,3.70
2023-08-16T15:17:06.748Z,4.10
2023-08-16T15:19:40.797Z,3.70
2023-08-16T15:22:09.996Z,3.50
2023-08-16T15:24:38.527Z,3.30
2023-08-16T15:27:06.958Z,3.70
2023-08-16T15:29:35.378Z,3.20
2023-08-16T15:32:04.156Z,4.10
2023-08-16T15:34:32.597Z,3.50
2023-08-16T15:37:01.055Z,3.90
2023-08-16T15:39:29.423Z,3.20
2023-08-16T15:41:58.999Z,3.80
2023-08-16T15:44:27.282Z,3.60
2023-08-16T15:46:56.108Z,4.50
2023-08-16T15:49:25.296Z,3.80
2023-08-16T15:51:54.290Z,3.50
2023-08-16T15:54:22.672Z,3.50
2023-08-16T15:56:51.034Z,4.00
2023-08-16T15:59:19.446Z,3.90
2023-08-16T16:01:47.735Z,4.10
2023-08-16T16:04:16.702Z,3.50
2023-08-16T16:06:45.019Z,4.00
2023-08-16T16:09:13.403Z,4.30
2023-08-16T16:11:41.834Z,4.30
2023-08-16T16:14:10.501Z,5.10
2023-08-16T16:16:45.741Z,5.70
2023-08-16T16:19:14.091Z,4.40
2023-08-16T16:21:43.144Z,4.60
2023-08-16T16:24:11.635Z,4.50
2023-08-16T16:26:40.196Z,4.60
2023-08-16T16:29:09.996Z,4.60
2023-08-16T16:31:40.475Z,4.50
2023-08-16T16:34:08.965Z,4.90
2023-08-16T16:36:39.055Z,4.60
2023-08-16T16:39:08.708Z,4.90
2023-08-16T16:41:37.080Z,4.80
2023-08-16T16:44:06.722Z,4.60
2023-08-16T16:46:35.071Z,5.10
2023-08-16T16:49:03.575Z,5.10
2023-08-16T16:51:32.060Z,4.90
2023-08-16T16:54:00.364Z,5.20
2023-08-16T16:56:28.847Z,5.90
2023-08-16T16:58:57.250Z,5.90
2023-08-16T17:01:25.944Z,4.80
2023-08-16T17:03:54.434Z,5.00
2023-08-16T17:06:22.768Z,5.10
2023-08-16T17:08:51.197Z,5.40
2023-08-16T17:11:19.583Z,6.10
2023-08-16T17:13:48.129Z,5.50
2023-08-16T17:16:16.842Z,5.30
2023-08-16T17:18:45.381Z,5.60
2023-08-16T17:21:15.622Z,5.80
2023-08-16T17:23:45.060Z,6.10
2023-08-16T17:26:14.251Z,6.90
2023-08-16T17:28:42.608Z,6.30
2023-08-16T17:31:12.144Z,6.10
2023-08-16T17:33:40.781Z,6.30
2023-08-16T17:36:13.498Z,6.10
2023-08-16T17:38:43.770Z,7.00
2023-08-16T17:41:14.993Z,6.40
2023-08-16T17:43:44.161Z,6.80
2023-08-16T17:46:12.639Z,6.20
2023-08-16T17:48:41.197Z,5.50
2023-08-16T17:51:09.729Z,7.60
2023-08-16T17:53:38.196Z,6.10
2023-08-16T17:56:06.823Z,7.30
2023-08-16T17:58:35.963Z,6.60
2023-08-16T18:01:05.852Z,7.10
2023-08-16T18:03:34.641Z,6.50
2023-08-16T18:06:03.447Z,6.30
2023-08-16T18:08:31.908Z,7.10
2023-08-16T18:11:00.374Z,7.00
2023-08-16T18:13:29.041Z,7.30
2023-08-16T18:15:57.453Z,6.80
2023-08-16T18:18:26.582Z,6.90
2023-08-16T18:20:55.263Z,6.60
2023-08-16T18:23:23.973Z,7.20
2023-08-16T18:25:52.844Z,6.70
2023-08-16T18:28:21.210Z,7.80
2023-08-16T18:30:49.803Z,6.80
2023-08-16T18:33:18.880Z,6.30
2023-08-16T18:35:47.654Z,5.90
2023-08-16T18:38:16.228Z,5.80
2023-08-16T18:40:44.811Z,5.80
2023-08-16T18:43:13.268Z,7.00
2023-08-16T18:45:46.433Z,5.80
2023-08-16T18:48:15.283Z,6.40
2023-08-16T18:50:44.625Z,5.80
2023-08-16T18:53:13.639Z,6.10
2023-08-16T18:55:43.052Z,6.30
2023-08-16T18:58:11.449Z,6.00
2023-08-16T19:00:42.357Z,6.20
2023-08-16T19:03:10.882Z,6.30
2023-08-16T19:05:44.068Z,6.30
2023-08-16T19:08:13.725Z,6.50
2023-08-16T19:10:42.952Z,6.50
2023-08-16T19:13:11.504Z,6.30
2023-08-16T19:15:39.962Z,6.70
2023-08-16T19:18:09.182Z,6.50
2023-08-16T19:20:39.263Z,7.50
2023-08-16T19:23:07.646Z,7.00
2023-08-16T19:25:36.044Z,6.70
2023-08-16T19:28:05.482Z,7.20
2023-08-16T19:30:36.282Z,6.80
2023-08-16T19:33:05.587Z,7.40
2023-08-16T19:35:33.930Z,6.50
2023-08-16T19:38:02.331Z,5.90
2023-08-16T19:40:31.285Z,7.20
2023-08-16T19:42:59.705Z,7.00
2023-08-16T19:45:28.052Z,7.10
2023-08-16T19:47:56.669Z,8.00
2023-08-16T19:50:25.529Z,8.10
2023-08-16T19:52:55.060Z,7.10
2023-08-16T19:55:23.817Z,7.00
2023-08-16T19:57:52.722Z,7.40
2023-08-16T20:00:22.026Z,7.50
2023-08-16T20:02:50.533Z,6.90
2023-08-16T20:05:19.525Z,7.40
2023-08-16T20:07:47.844Z,7.60
2023-08-16T20:10:17.773Z,8.50
2023-08-16T20:12:46.827Z,7.70
2023-08-16T20:15:15.616Z,7.10
2023-08-16T20:17:44.079Z,6.80
2023-08-16T20:20:13.843Z,8.00
2023-08-16T20:22:43.449Z,7.00
2023-08-16T20:25:12.072Z,7.00
2023-08-16T20:27:40.824Z,7.00
2023-08-16T20:30:11.157Z,7.40
2023-08-16T20:32:39.541Z,6.90
2023-08-16T20:35:08.788Z,7.30
2023-08-16T20:37:37.232Z,7.90
2023-08-16T20:40:08.659Z,7.90
2023-08-16T20:42:38.784Z,8.30
2023-08-16T20:45:10.032Z,7.60
2023-08-16T20:47:39.728Z,9.30
2023-08-16T20:50:11.313Z,8.10
2023-08-16T20:52:42.306Z,8.00
2023-08-16T20:55:11.768Z,8.60
2023-08-16T20:57:40.239Z,8.30
2023-08-16T21:00:12.221Z,8.10
2023-08-16T21:02:40.665Z,8.20
2023-08-16T21:05:09.643Z,8.70
2023-08-16T21:07:38.069Z,8.40
2023-08-16T21:10:08.181Z,8.00
2023-08-16T21:12:36.684Z,9.00
2023-08-16T21:15:06.656Z,8.70
2023-08-16T21:17:35.074Z,9.20
2023-08-16T21:20:03.937Z,9.80
2023-08-16T21:22:32.317Z,8.70
2023-08-16T21:25:00.726Z,9.00
2023-08-16T21:27:29.053Z,9.10
2023-08-16T21:29:57.382Z,9.90
2023-08-16T21:32:25.749Z,9.10
2023-08-16T21:34:54.064Z,9.30
2023-08-16T21:37:22.489Z,9.70
2023-08-16T21:39:52.075Z,9.50
2023-08-16T21:42:20.530Z,9.10
2023-08-16T21:44:48.832Z,8.80
2023-08-16T21:47:17.265Z,8.90
2023-08-16T21:49:45.648Z,9.90
2023-08-16T21:52:13.982Z,9.40
2023-08-16T21:54:42.488Z,9.70
2023-08-16T21:57:10.842Z,9.40
2023-08-16T21:59:39.177Z,9.30
2023-08-16T22:02:07.680Z,9.40
2023-08-16T22:04:36.517Z,8.90
2023-08-16T22:07:05.290Z,9.20
2023-08-16T22:09:34.433Z,10.00
2023-08-16T22:12:03.001Z,9.50
2023-08-16T22:14:31.429Z,9.50
2023-08-16T22:16:59.893Z,10.10
2023-08-16T22:19:28.235Z,9.40
2023-08-16T22:21:56.539Z,9.50
2023-08-16T22:24:24.862Z,9.90
2023-08-16T22:26:53.267Z,10.10
2023-08-16T22:29:22.465Z,9.60
2023-08-16T22:31:52.075Z,10.50
2023-08-16T22:34:21.887Z,10.10
2023-08-16T22:36:50.381Z,9.60
2023-08-16T22:39:18.687Z,10.80
2023-08-16T22:41:47.901Z,10.00
2023-08-16T22:44:16.312Z,10.50
2023-08-16T22:46:44.784Z,10.90
2023-08-16T22:49:13.325Z,10.90
2023-08-16T22:51:41.658Z,11.00
2023-08-16T22:54:10.441Z,10.20
2023-08-16T22:56:39.317Z,10.60
2023-08-16T22:59:07.671Z,10.70
2023-08-16T23:01:36.096Z,10.40
2023-08-16T23:04:05.702Z,10.70
2023-08-16T23:06:35.000Z,11.10
2023-08-16T23:09:04.055Z,10.50
2023-08-16T23:11:32.698Z,10.10
2023-08-16T23:14:01.302Z,10.60
2023-08-16T23:16:29.882Z,10.10
2023-08-16T23:19:00.214Z,10.30
2023-08-16T23:21:28.721Z,10.60
2023-08-16T23:23:57.210Z,10.20
2023-08-16T23:26:25.819Z,10.50
2023-08-16T23:28:54.188Z,11.90
2023-08-16T23:31:22.516Z,11.40
2023-08-16T23:33:51.284Z,10.80
2023-08-16T23:36:19.593Z,10.50
2023-08-16T23:38:48.032Z,12.10
2023-08-16T23:41:16.592Z,11.60
2023-08-16T23:43:45.016Z,11.30
2023-08-16T23:46:13.509Z,11.90
2023-08-16T23:48:43.243Z,11.50
2023-08-16T23:51:11.516Z,12.50
2023-08-16T23:53:40.032Z,11.90
2023-08-16T23:56:08.647Z,12.10
2023-08-16T23:58:37.110Z,11.30
